createdAt,value
2019-04-27T00:01:24.469Z,2.67
2019-04-27T00:04:19.312Z,2.30
2019-04-27T00:06:49.106Z,2.57
2019-04-27T00:09:29.118Z,3.93
2019-04-27T00:12:05.584Z,3.37
2019-04-27T00:14:36.781Z,2.27
2019-04-27T00:17:43.559Z,3.23
2019-04-27T00:20:26.507Z,2.70
2019-04-27T00:22:59.275Z,2.30
2019-04-27T00:25:29.099Z,2.60
2019-04-27T00:27:58.871Z,2.37
2019-04-27T00:30:28.619Z,3.50
2019-04-27T00:32:58.564Z,2.40
2019-04-27T00:35:34.301Z,2.37
2019-04-27T00:38:29.310Z,3.00
2019-04-27T00:41:08.394Z,2.83
2019-04-27T00:43:38.226Z,3.23
2019-04-27T00:46:27.118Z,2.83
2019-04-27T00:48:56.900Z,2.40
2019-04-27T00:51:28.402Z,4.07
2019-04-27T00:53:58.127Z,3.30
2019-04-27T00:56:39.827Z,2.70
2019-04-27T00:59:33.030Z,3.40
2019-04-27T01:02:18.368Z,3.13
2019-04-27T01:04:48.295Z,3.60
2019-04-27T01:07:18.106Z,2.73
2019-04-27T01:09:47.810Z,2.83
2019-04-27T01:12:19.031Z,2.50
2019-04-27T01:14:48.753Z,2.47
2019-04-27T01:17:18.898Z,2.63
2019-04-27T01:19:49.372Z,2.93
2019-04-27T01:22:20.259Z,4.20
2019-04-27T01:24:49.947Z,2.93
2019-04-27T01:27:34.408Z,3.93
2019-04-27T01:30:08.740Z,3.17
2019-04-27T01:32:39.226Z,4.03
2019-04-27T01:35:09.118Z,5.27
2019-04-27T01:37:38.876Z,4.00
2019-04-27T01:40:09.813Z,3.90
2019-04-27T01:42:39.714Z,3.53
2019-04-27T01:45:09.566Z,3.63
2019-04-27T01:47:39.275Z,3.57
2019-04-27T01:50:09.265Z,2.73
2019-04-27T01:52:39.023Z,3.40
2019-04-27T01:55:09.074Z,3.80
2019-04-27T01:57:38.894Z,2.97
2019-04-27T02:00:29.467Z,3.27
2019-04-27T02:03:01.208Z,3.47
2019-04-27T02:05:35.502Z,2.73
2019-04-27T02:08:05.823Z,3.37
2019-04-27T02:10:35.660Z,3.47
2019-04-27T02:13:05.482Z,2.37
2019-04-27T02:15:35.251Z,2.80
2019-04-27T02:18:05.379Z,2.60
2019-04-27T02:20:35.145Z,2.37
2019-04-27T02:23:04.967Z,2.67
2019-04-27T02:25:34.750Z,2.80
2019-04-27T02:28:12.624Z,2.57
2019-04-27T02:31:02.422Z,2.33
2019-04-27T02:33:41.811Z,2.17
2019-04-27T02:36:14.829Z,2.53
2019-04-27T02:38:43.125Z,2.23
2019-04-27T02:41:12.883Z,3.20
2019-04-27T02:43:50.843Z,2.47
2019-04-27T02:46:20.676Z,2.80
2019-04-27T02:48:59.346Z,2.50
2019-04-27T02:51:29.906Z,2.77
2019-04-27T02:54:00.641Z,2.27
2019-04-27T02:56:31.363Z,2.40
2019-04-27T02:59:01.195Z,3.43
2019-04-27T03:01:33.448Z,2.97
2019-04-27T03:04:03.255Z,3.23
2019-04-27T03:06:33.152Z,3.43
2019-04-27T03:09:03.040Z,3.13
2019-04-27T03:11:54.218Z,3.53
2019-04-27T03:14:47.069Z,3.60
2019-04-27T03:17:39.557Z,3.60
2019-04-27T03:20:30.010Z,3.03
2019-04-27T03:23:02.970Z,2.87
2019-04-27T03:25:51.896Z,3.00
2019-04-27T03:28:21.766Z,3.37
2019-04-27T03:30:52.563Z,3.87
2019-04-27T03:33:22.930Z,2.73
2019-04-27T03:35:53.207Z,2.70
2019-04-27T03:38:23.335Z,3.37
2019-04-27T03:40:53.388Z,2.50
2019-04-27T03:43:24.703Z,2.37
2019-04-27T03:45:54.984Z,2.20
2019-04-27T03:48:24.724Z,2.70
2019-04-27T03:51:12.419Z,2.43
2019-04-27T03:53:57.340Z,2.90
2019-04-27T03:56:34.288Z,3.17
2019-04-27T03:59:09.833Z,2.50
2019-04-27T04:01:39.740Z,2.30
2019-04-27T04:04:10.717Z,2.10
2019-04-27T04:06:40.617Z,2.90
2019-04-27T04:09:11.768Z,2.57
2019-04-27T04:11:54.442Z,2.27
2019-04-27T04:14:24.638Z,2.77
2019-04-27T04:17:01.683Z,2.80
2019-04-27T04:19:31.517Z,2.67
2019-04-27T04:22:00.027Z,4.43
2019-04-27T04:24:31.842Z,2.90
2019-04-27T04:27:01.469Z,2.83
2019-04-27T04:29:31.162Z,2.53
2019-04-27T04:32:00.912Z,2.97
2019-04-27T04:34:30.973Z,2.80
2019-04-27T04:37:00.742Z,2.43
2019-04-27T04:39:30.525Z,3.13
2019-04-27T04:42:05.923Z,2.63
2019-04-27T04:45:00.988Z,2.83
2019-04-27T04:47:49.987Z,2.87
2019-04-27T04:50:22.439Z,2.83
2019-04-27T04:52:51.246Z,2.60
2019-04-27T04:55:21.092Z,3.27
2019-04-27T04:57:51.008Z,2.70
2019-04-27T05:00:20.837Z,3.83
2019-04-27T05:02:50.628Z,2.60
2019-04-27T05:05:20.370Z,3.50
2019-04-27T05:07:50.072Z,3.27
2019-04-27T05:10:19.914Z,3.80
2019-04-27T05:12:50.458Z,5.40
2019-04-27T05:15:20.730Z,3.27
2019-04-27T05:17:51.731Z,3.50
2019-04-27T05:20:30.687Z,3.17
2019-04-27T05:23:00.378Z,3.70
2019-04-27T05:25:31.046Z,4.07
2019-04-27T05:28:00.823Z,3.63
2019-04-27T05:30:30.501Z,4.43
2019-04-27T05:33:00.279Z,3.67
2019-04-27T05:35:30.003Z,3.97
2019-04-27T05:38:02.508Z,4.60
2019-04-27T05:40:31.218Z,3.57
2019-04-27T05:43:00.974Z,4.17
2019-04-27T05:46:10.867Z,3.47
2019-04-27T05:48:40.014Z,3.93
2019-04-27T05:51:09.726Z,4.30
2019-04-27T05:53:39.644Z,4.37
2019-04-27T05:56:09.529Z,4.63
2019-04-27T05:58:39.389Z,3.30
2019-04-27T06:01:10.894Z,4.93
2019-04-27T06:03:40.526Z,3.97
2019-04-27T06:06:10.371Z,4.93
2019-04-27T06:08:40.131Z,4.53
2019-04-27T06:11:11.517Z,3.63
2019-04-27T06:13:41.202Z,4.67
2019-04-27T06:16:10.964Z,5.50
2019-04-27T06:18:40.661Z,4.77
2019-04-27T06:21:10.358Z,4.03
2019-04-27T06:23:40.111Z,5.50
2019-04-27T06:26:11.788Z,4.70
2019-04-27T06:28:41.216Z,4.37
2019-04-27T06:31:11.010Z,5.20
2019-04-27T06:33:40.710Z,5.80
2019-04-27T06:36:10.482Z,5.60
2019-04-27T06:38:40.202Z,5.00
2019-04-27T06:41:10.212Z,5.40
2019-04-27T06:43:40.674Z,4.97
2019-04-27T06:46:10.568Z,4.57
2019-04-27T06:48:40.534Z,3.70
2019-04-27T06:51:10.294Z,4.60
2019-04-27T06:53:40.062Z,4.23
2019-04-27T06:56:10.002Z,4.23
2019-04-27T06:58:40.746Z,4.90
2019-04-27T07:01:11.004Z,4.20
2019-04-27T07:03:40.871Z,4.40
2019-04-27T07:06:10.546Z,4.30
2019-04-27T07:08:40.406Z,4.60
2019-04-27T07:11:11.564Z,4.23
2019-04-27T07:13:41.545Z,3.63
2019-04-27T07:16:11.325Z,4.83
2019-04-27T07:18:41.088Z,4.27
2019-04-27T07:21:18.883Z,4.50
2019-04-27T07:23:59.055Z,4.00
2019-04-27T07:26:30.331Z,4.27
2019-04-27T07:29:00.427Z,3.97
2019-04-27T07:31:31.820Z,3.90
2019-04-27T07:34:13.748Z,3.73
2019-04-27T07:36:43.442Z,3.27
2019-04-27T07:39:13.120Z,3.83
2019-04-27T07:41:42.926Z,2.80
2019-04-27T07:44:35.935Z,3.57
2019-04-27T07:47:17.094Z,2.80
2019-04-27T07:49:47.026Z,2.30
2019-04-27T07:52:18.946Z,2.27
2019-04-27T07:54:49.201Z,2.37
2019-04-27T07:57:19.862Z,1.87
2019-04-27T07:59:50.325Z,2.20
2019-04-27T08:02:21.155Z,1.97
2019-04-27T08:04:51.056Z,1.73
2019-04-27T08:07:20.758Z,2.93
2019-04-27T08:09:50.530Z,2.50
2019-04-27T08:12:20.882Z,2.10
2019-04-27T08:14:50.792Z,2.00
2019-04-27T08:17:20.473Z,2.13
2019-04-27T08:19:50.267Z,2.10
2019-04-27T08:22:20.924Z,2.23
2019-04-27T08:24:50.647Z,3.13
2019-04-27T08:27:26.626Z,1.77
2019-04-27T08:30:10.224Z,3.13
2019-04-27T08:32:42.426Z,2.33
2019-04-27T08:35:13.630Z,2.57
2019-04-27T08:37:43.454Z,3.17
2019-04-27T08:40:13.618Z,2.00
2019-04-27T08:42:43.467Z,2.03
2019-04-27T08:45:13.342Z,2.63
2019-04-27T08:47:43.111Z,3.30
2019-04-27T08:50:13.942Z,2.60
2019-04-27T08:52:43.638Z,2.67
2019-04-27T08:55:14.086Z,1.93
2019-04-27T08:57:43.802Z,2.43
2019-04-27T09:00:13.736Z,2.50
2019-04-27T09:02:47.077Z,1.37
2019-04-27T09:05:16.620Z,1.47
2019-04-27T09:07:56.670Z,2.03
2019-04-27T09:10:34.691Z,3.27
2019-04-27T09:13:11.315Z,2.27
2019-04-27T09:15:54.971Z,3.30
2019-04-27T09:18:26.967Z,2.00
2019-04-27T09:20:59.013Z,2.17
2019-04-27T09:23:28.732Z,2.30
2019-04-27T09:25:59.460Z,2.80
2019-04-27T09:28:30.742Z,2.20
2019-04-27T09:31:00.502Z,3.17
2019-04-27T09:33:30.283Z,2.70
2019-04-27T09:35:59.995Z,3.07
2019-04-27T09:38:29.859Z,3.83
2019-04-27T09:40:59.643Z,2.67
2019-04-27T09:43:29.390Z,2.70
2019-04-27T09:45:59.163Z,3.17
2019-04-27T09:48:28.905Z,1.50
2019-04-27T09:50:58.618Z,2.80
2019-04-27T09:53:28.407Z,2.97
2019-04-27T09:55:58.096Z,4.60
2019-04-27T09:58:27.930Z,2.83
2019-04-27T10:00:57.702Z,3.13
2019-04-27T10:03:27.410Z,2.10
2019-04-27T10:05:57.210Z,2.07
2019-04-27T10:08:27.041Z,1.20
2019-04-27T10:10:56.812Z,1.33
2019-04-27T10:13:27.675Z,1.40
2019-04-27T10:15:58.439Z,1.90
2019-04-27T10:18:29.201Z,3.07
2019-04-27T10:21:02.073Z,3.17
2019-04-27T10:23:30.385Z,2.97
2019-04-27T10:26:00.222Z,3.03
2019-04-27T10:28:29.910Z,3.20
2019-04-27T10:30:59.670Z,1.83
2019-04-27T10:33:30.829Z,4.00
2019-04-27T10:36:00.609Z,2.13
2019-04-27T10:38:30.457Z,2.63
2019-04-27T10:41:00.290Z,2.33
2019-04-27T10:43:29.986Z,1.47
2019-04-27T10:45:59.763Z,2.63
2019-04-27T10:48:29.447Z,2.23
2019-04-27T10:50:59.210Z,3.37
2019-04-27T10:53:28.971Z,2.30
2019-04-27T10:55:58.668Z,2.00
2019-04-27T10:58:28.366Z,2.23
2019-04-27T11:00:59.819Z,2.43
2019-04-27T11:03:47.542Z,1.77
2019-04-27T11:06:38.985Z,1.03
2019-04-27T11:09:10.415Z,1.53
2019-04-27T11:11:41.595Z,1.43
2019-04-27T11:14:11.503Z,2.00
2019-04-27T11:16:41.334Z,2.50
2019-04-27T11:19:11.174Z,2.80
2019-04-27T11:21:40.878Z,1.57
2019-04-27T11:24:10.625Z,1.60
2019-04-27T11:26:40.422Z,1.27
2019-04-27T11:29:10.186Z,0.70
2019-04-27T11:31:40.830Z,1.60
2019-04-27T11:34:11.478Z,1.37
2019-04-27T11:36:50.753Z,1.70
2019-04-27T11:39:21.247Z,1.13
2019-04-27T11:41:51.109Z,1.20
2019-04-27T11:44:20.833Z,1.97
2019-04-27T11:46:50.604Z,1.90
2019-04-27T11:49:20.427Z,2.00
2019-04-27T11:51:50.171Z,1.40
2019-04-27T11:54:19.947Z,2.43
2019-04-27T11:56:49.829Z,1.50
2019-04-27T11:59:19.656Z,1.10
2019-04-27T12:01:49.422Z,1.00
2019-04-27T12:04:19.110Z,1.57
2019-04-27T12:06:48.975Z,1.50
2019-04-27T12:09:18.658Z,0.97
2019-04-27T12:11:55.884Z,1.07
2019-04-27T12:14:26.842Z,1.30
2019-04-27T12:16:56.615Z,1.00
2019-04-27T12:19:26.926Z,1.53
2019-04-27T12:21:56.762Z,0.50
2019-04-27T12:24:26.792Z,1.70
2019-04-27T12:27:31.263Z,1.53
2019-04-27T12:30:19.962Z,1.27
2019-04-27T12:32:49.773Z,0.43
2019-04-27T12:35:19.838Z,0.73
2019-04-27T12:37:49.678Z,0.77
2019-04-27T12:40:20.498Z,0.87
2019-04-27T12:42:50.283Z,0.80
2019-04-27T12:45:20.302Z,0.70
2019-04-27T12:47:50.094Z,0.70
2019-04-27T12:50:21.041Z,0.90
2019-04-27T12:52:53.877Z,1.17
2019-04-27T12:55:39.582Z,2.63
2019-04-27T12:58:26.425Z,0.90
2019-04-27T13:00:56.850Z,1.10
2019-04-27T13:03:26.683Z,0.80
2019-04-27T13:05:56.526Z,1.20
2019-04-27T13:08:26.272Z,1.53
2019-04-27T13:10:57.419Z,2.70
2019-04-27T13:13:28.406Z,1.17
2019-04-27T13:15:58.086Z,1.57
2019-04-27T13:18:27.787Z,1.27
2019-04-27T13:20:57.562Z,1.07
2019-04-27T13:23:28.579Z,1.57
2019-04-27T13:25:58.497Z,1.87
2019-04-27T13:28:29.222Z,2.67
2019-04-27T13:30:58.929Z,3.17
2019-04-27T13:33:28.818Z,5.43
2019-04-27T13:35:58.603Z,2.30
2019-04-27T13:38:28.457Z,1.73
2019-04-27T13:41:06.631Z,1.67
2019-04-27T13:43:37.063Z,2.80
2019-04-27T13:46:26.771Z,3.37
2019-04-27T13:49:17.644Z,1.20
2019-04-27T13:52:02.779Z,1.30
2019-04-27T13:54:32.472Z,1.50
2019-04-27T13:57:02.375Z,2.03
2019-04-27T13:59:32.062Z,3.07
2019-04-27T14:02:03.670Z,2.00
2019-04-27T14:04:33.468Z,2.10
2019-04-27T14:07:03.397Z,2.30
2019-04-27T14:09:33.236Z,2.23
2019-04-27T14:12:10.043Z,3.70
2019-04-27T14:14:39.734Z,4.57
2019-04-27T14:17:09.813Z,2.30
2019-04-27T14:19:39.676Z,1.90
2019-04-27T14:22:09.398Z,2.77
2019-04-27T14:24:42.384Z,2.47
2019-04-27T14:27:12.171Z,2.43
2019-04-27T14:29:41.872Z,1.97
2019-04-27T14:32:11.638Z,2.23
2019-04-27T14:34:41.323Z,2.50
2019-04-27T14:37:11.009Z,2.37
2019-04-27T14:39:40.696Z,1.80
2019-04-27T14:42:10.478Z,1.50
2019-04-27T14:44:40.243Z,1.60
2019-04-27T14:47:10.022Z,0.90
2019-04-27T14:49:39.715Z,1.10
2019-04-27T14:52:09.694Z,1.83
2019-04-27T14:54:47.771Z,1.40
2019-04-27T14:57:11.175Z,1.53
2019-04-27T14:59:40.878Z,1.60
2019-04-27T15:02:10.595Z,1.37
2019-04-27T15:04:42.406Z,2.17
2019-04-27T15:07:13.729Z,2.10
2019-04-27T15:09:45.134Z,1.93
2019-04-27T15:12:15.753Z,1.87
2019-04-27T15:14:45.744Z,1.70
2019-04-27T15:17:17.590Z,1.20
2019-04-27T15:19:54.010Z,1.60
2019-04-27T15:22:29.924Z,1.00
2019-04-27T15:25:09.250Z,3.00
2019-04-27T15:27:42.187Z,1.93
2019-04-27T15:30:17.766Z,1.13
2019-04-27T15:33:10.557Z,1.90
2019-04-27T15:35:44.072Z,1.83
2019-04-27T15:38:19.820Z,1.90
2019-04-27T15:41:08.924Z,1.90
2019-04-27T15:43:40.361Z,1.70
2019-04-27T15:46:10.270Z,2.10
2019-04-27T15:48:40.098Z,2.47
2019-04-27T15:51:17.270Z,2.70
2019-04-27T15:53:45.556Z,1.83
2019-04-27T15:56:13.095Z,1.90
2019-04-27T15:58:43.456Z,1.57
2019-04-27T16:01:13.670Z,2.50
2019-04-27T16:03:43.503Z,1.90
2019-04-27T16:06:13.697Z,2.87
2019-04-27T16:08:45.228Z,1.20
2019-04-27T16:11:19.005Z,1.60
2019-04-27T16:13:48.771Z,1.30
2019-04-27T16:16:19.282Z,1.57
2019-04-27T16:18:49.213Z,2.90
2019-04-27T16:21:20.093Z,1.10
2019-04-27T16:23:50.022Z,1.60
2019-04-27T16:26:19.875Z,1.93
2019-04-27T16:28:52.952Z,2.50
2019-04-27T16:31:24.932Z,2.43
2019-04-27T16:33:54.011Z,2.03
2019-04-27T16:36:23.903Z,1.70
2019-04-27T16:39:03.594Z,1.63
2019-04-27T16:41:37.436Z,1.37
2019-04-27T16:44:06.740Z,1.40
2019-04-27T16:46:39.424Z,0.97
2019-04-27T16:49:14.056Z,0.90
2019-04-27T16:51:40.436Z,1.00
2019-04-27T16:54:17.051Z,0.90
2019-04-27T16:56:45.553Z,0.40
2019-04-27T16:59:36.568Z,0.90
2019-04-27T17:01:46.274Z,0.67
2019-04-27T17:04:19.340Z,0.43
2019-04-27T17:06:49.605Z,0.90
2019-04-27T17:09:19.475Z,0.93
2019-04-27T17:11:50.107Z,1.07
2019-04-27T17:14:38.771Z,7.67
2019-04-27T17:17:28.227Z,5.43
2019-04-27T17:20:00.477Z,9.53
2019-04-27T17:22:30.162Z,3.50
2019-04-27T17:24:59.906Z,2.33
2019-04-27T17:27:38.249Z,2.23
2019-04-27T17:30:09.078Z,1.70
2019-04-27T17:32:54.550Z,1.73
2019-04-27T17:35:24.258Z,3.70
2019-04-27T17:37:54.423Z,2.60
2019-04-27T17:40:24.407Z,1.43
2019-04-27T17:42:55.384Z,2.03
2019-04-27T17:45:25.206Z,1.90
2019-04-27T17:48:00.398Z,3.73
2019-04-27T17:50:28.041Z,1.40
2019-04-27T17:52:59.096Z,1.20
2019-04-27T17:55:28.970Z,1.00
2019-04-27T17:58:04.959Z,1.07
2019-04-27T18:00:33.029Z,0.97
2019-04-27T18:03:02.685Z,1.67
2019-04-27T18:05:32.459Z,1.00
2019-04-27T18:08:02.319Z,3.23
2019-04-27T18:10:32.075Z,0.97
2019-04-27T18:13:01.835Z,1.00
2019-04-27T18:15:31.597Z,1.37
2019-04-27T18:18:05.761Z,1.40
2019-04-27T18:20:35.502Z,2.40
2019-04-27T18:23:15.051Z,0.90
2019-04-27T18:25:48.159Z,0.90
2019-04-27T18:28:21.900Z,1.20
2019-04-27T18:31:11.596Z,1.93
2019-04-27T18:33:42.242Z,2.00
2019-04-27T18:36:14.322Z,2.93
2019-04-27T18:38:43.574Z,1.30
2019-04-27T18:41:13.347Z,2.13
2019-04-27T18:43:50.619Z,2.53
2019-04-27T18:46:19.054Z,2.40
2019-04-27T18:49:05.346Z,4.67
2019-04-27T18:51:44.510Z,2.50
2019-04-27T18:54:14.198Z,1.47
2019-04-27T18:56:43.962Z,2.30
2019-04-27T18:59:13.731Z,2.30
2019-04-27T19:01:43.423Z,3.10
2019-04-27T19:04:13.190Z,2.87
2019-04-27T19:06:42.879Z,1.70
2019-04-27T19:09:13.153Z,2.70
2019-04-27T19:11:54.197Z,1.57
2019-04-27T19:14:14.678Z,1.10
2019-04-27T19:16:44.367Z,1.07
2019-04-27T19:19:15.386Z,0.93
2019-04-27T19:21:45.479Z,1.20
2019-04-27T19:24:15.340Z,2.10
2019-04-27T19:26:54.268Z,0.80
2019-04-27T19:29:30.259Z,2.20
2019-04-27T19:32:01.551Z,1.60
2019-04-27T19:34:32.272Z,1.60
2019-04-27T19:37:02.124Z,2.23
2019-04-27T19:39:31.830Z,2.27
2019-04-27T19:42:03.793Z,1.70
2019-04-27T19:44:33.059Z,1.87
2019-04-27T19:47:05.624Z,2.37
2019-04-27T19:49:34.255Z,1.90
2019-04-27T19:52:04.082Z,3.03
2019-04-27T19:54:34.028Z,1.37
2019-04-27T19:57:03.703Z,2.83
2019-04-27T19:59:39.318Z,2.23
2019-04-27T20:02:13.258Z,1.70
2019-04-27T20:04:44.730Z,1.70
2019-04-27T20:07:14.490Z,0.77
2019-04-27T20:09:58.507Z,1.27
2019-04-27T20:12:28.354Z,0.67
2019-04-27T20:14:58.428Z,0.90
2019-04-27T20:17:31.136Z,0.80
2019-04-27T20:20:01.872Z,1.13
2019-04-27T20:22:32.531Z,0.80
2019-04-27T20:25:02.318Z,1.13
2019-04-27T20:27:45.268Z,1.10
2019-04-27T20:30:06.275Z,1.30
2019-04-27T20:32:36.019Z,1.30
2019-04-27T20:35:07.177Z,1.20
2019-04-27T20:37:37.516Z,0.93
2019-04-27T20:40:07.963Z,2.10
2019-04-27T20:42:37.700Z,1.93
2019-04-27T20:45:07.802Z,1.03
2019-04-27T20:47:37.490Z,1.00
2019-04-27T20:50:07.339Z,1.53
2019-04-27T20:52:56.198Z,0.73
2019-04-27T20:55:26.122Z,1.17
2019-04-27T20:58:01.714Z,0.73
2019-04-27T21:00:27.307Z,0.93
2019-04-27T21:03:14.927Z,0.63
2019-04-27T21:06:03.687Z,1.50
2019-04-27T21:08:35.106Z,1.03
2019-04-27T21:11:04.940Z,2.13
2019-04-27T21:13:34.714Z,0.73
2019-04-27T21:16:04.539Z,1.40
2019-04-27T21:18:34.565Z,2.10
2019-04-27T21:21:04.407Z,1.73
2019-04-27T21:23:34.426Z,1.57
2019-04-27T21:26:04.201Z,1.60
2019-04-27T21:28:33.879Z,1.17
2019-04-27T21:31:03.573Z,3.13
2019-04-27T21:33:33.261Z,1.90
2019-04-27T21:36:02.946Z,1.20
2019-04-27T21:38:32.725Z,0.90
2019-04-27T21:41:02.483Z,0.90
2019-04-27T21:43:32.711Z,1.80
2019-04-27T21:46:02.638Z,0.80
2019-04-27T21:48:32.392Z,0.40
2019-04-27T21:51:02.086Z,0.40
2019-04-27T21:53:41.154Z,0.70
2019-04-27T21:56:11.807Z,0.90
2019-04-27T21:58:42.088Z,0.53
2019-04-27T22:01:21.626Z,0.70
2019-04-27T22:03:52.805Z,0.50
2019-04-27T22:06:22.843Z,0.57
2019-04-27T22:08:52.596Z,0.87
2019-04-27T22:11:22.422Z,0.87
2019-04-27T22:13:52.250Z,1.37
2019-04-27T22:16:21.994Z,1.40
2019-04-27T22:18:52.069Z,1.00
2019-04-27T22:21:21.861Z,1.30
2019-04-27T22:24:15.957Z,1.13
2019-04-27T22:26:45.715Z,1.27
2019-04-27T22:29:15.493Z,1.00
2019-04-27T22:31:45.318Z,2.53
2019-04-27T22:34:14.993Z,1.40
2019-04-27T22:36:44.681Z,0.57
2019-04-27T22:39:21.136Z,0.90
2019-04-27T22:42:09.925Z,1.03
2019-04-27T22:44:45.502Z,1.00
2019-04-27T22:47:15.226Z,0.50
2019-04-27T22:49:45.055Z,0.83
2019-04-27T22:52:14.734Z,0.97
2019-04-27T22:54:44.489Z,0.90
2019-04-27T22:57:31.307Z,1.00
2019-04-27T23:00:25.435Z,1.27
2019-04-27T23:03:00.614Z,0.97
2019-04-27T23:05:31.971Z,0.80
2019-04-27T23:08:01.968Z,1.73
2019-04-27T23:10:31.902Z,1.37
2019-04-27T23:13:01.678Z,0.97
2019-04-27T23:15:37.578Z,0.80
2019-04-27T23:18:07.350Z,0.90
2019-04-27T23:20:37.178Z,0.50
2019-04-27T23:23:06.874Z,0.80
2019-04-27T23:25:36.619Z,0.83
2019-04-27T23:28:06.378Z,0.80
2019-04-27T23:30:58.291Z,1.37
2019-04-27T23:33:28.058Z,0.60
2019-04-27T23:35:57.738Z,0.90
2019-04-27T23:38:27.502Z,1.17
2019-04-27T23:40:57.182Z,1.00
2019-04-27T23:43:26.907Z,0.83
2019-04-27T23:45:57.966Z,0.60
2019-04-27T23:48:27.659Z,1.10
2019-04-27T23:51:02.378Z,2.10
2019-04-27T23:53:34.066Z,0.80
2019-04-27T23:56:03.836Z,0.70
2019-04-27T23:58:33.586Z,0.93
